sensor_id;sensor_type;location;lat;lon;timestamp;P1;durP1;ratioP1;P2;durP2;ratioP2
46633;SDS011;32362;49.986;8.026;2023-04-08T00:11:14;15.38;;;8.63;;
46633;SDS011;32362;49.986;8.026;2023-04-08T00:37:55;17.88;;;9.98;;
46633;SDS011;32362;49.986;8.026;2023-04-08T01:04:43;17.92;;;10.57;;
46633;SDS011;32362;49.986;8.026;2023-04-08T01:31:45;20.20;;;11.17;;
46633;SDS011;32362;49.986;8.026;2023-04-08T01:58:27;18.60;;;10.02;;
46633;SDS011;32362;49.986;8.026;2023-04-08T02:25:15;18.25;;;10.55;;
46633;SDS011;32362;49.986;8.026;2023-04-08T02:52:01;12.85;;;8.13;;
46633;SDS011;32362;49.986;8.026;2023-04-08T03:19:00;13.40;;;7.88;;
46633;SDS011;32362;49.986;8.026;2023-04-08T03:45:41;14.27;;;8.27;;
46633;SDS011;32362;49.986;8.026;2023-04-08T04:12:29;20.25;;;9.57;;
46633;SDS011;32362;49.986;8.026;2023-04-08T04:39:10;18.85;;;10.05;;
46633;SDS011;32362;49.986;8.026;2023-04-08T05:06:07;21.73;;;10.73;;
46633;SDS011;32362;49.986;8.026;2023-04-08T05:32:47;21.83;;;11.70;;
46633;SDS011;32362;49.986;8.026;2023-04-08T05:59:31;23.50;;;13.35;;
46633;SDS011;32362;49.986;8.026;2023-04-08T06:26:11;23.73;;;14.25;;
46633;SDS011;32362;49.986;8.026;2023-04-08T06:53:08;24.20;;;14.05;;
46633;SDS011;32362;49.986;8.026;2023-04-08T07:19:48;20.50;;;13.02;;
46633;SDS011;32362;49.986;8.026;2023-04-08T07:46:29;20.13;;;12.48;;
46633;SDS011;32362;49.986;8.026;2023-04-08T08:13:10;20.50;;;12.30;;
46633;SDS011;32362;49.986;8.026;2023-04-08T08:39:55;18.60;;;12.27;;
46633;SDS011;32362;49.986;8.026;2023-04-08T09:06:36;19.90;;;13.07;;
46633;SDS011;32362;49.986;8.026;2023-04-08T09:33:29;18.55;;;12.00;;
46633;SDS011;32362;49.986;8.026;2023-04-08T10:00:14;14.75;;;10.85;;
46633;SDS011;32362;49.986;8.026;2023-04-08T10:26:56;12.65;;;9.23;;
46633;SDS011;32362;49.986;8.026;2023-04-08T10:53:37;16.15;;;10.98;;
46633;SDS011;32362;49.986;8.026;2023-04-08T11:20:26;14.10;;;9.77;;
46633;SDS011;32362;49.986;8.026;2023-04-08T11:47:10;9.77;;;6.95;;
46633;SDS011;32362;49.986;8.026;2023-04-08T12:13:51;9.82;;;6.82;;
46633;SDS011;32362;49.986;8.026;2023-04-08T12:40:32;7.10;;;6.40;;
46633;SDS011;32362;49.986;8.026;2023-04-08T13:07:13;6.28;;;5.63;;
46633;SDS011;32362;49.986;8.026;2023-04-08T13:33:54;6.60;;;5.55;;
46633;SDS011;32362;49.986;8.026;2023-04-08T14:00:38;6.05;;;4.53;;
46633;SDS011;32362;49.986;8.026;2023-04-08T14:27:19;4.32;;;3.83;;
46633;SDS011;32362;49.986;8.026;2023-04-08T14:54:01;4.50;;;3.60;;
46633;SDS011;32362;49.986;8.026;2023-04-08T15:20:46;5.65;;;4.60;;
46633;SDS011;32362;49.986;8.026;2023-04-08T15:47:26;5.32;;;4.65;;
46633;SDS011;32362;49.986;8.026;2023-04-08T16:14:22;5.35;;;4.53;;
46633;SDS011;32362;49.986;8.026;2023-04-08T16:41:03;3.50;;;2.80;;
46633;SDS011;32362;49.986;8.026;2023-04-08T17:07:45;6.50;;;3.53;;
46633;SDS011;32362;49.986;8.026;2023-04-08T17:34:26;4.13;;;3.10;;
46633;SDS011;32362;49.986;8.026;2023-04-08T18:01:08;6.68;;;3.75;;
46633;SDS011;32362;49.986;8.026;2023-04-08T18:28:04;6.22;;;3.95;;
46633;SDS011;32362;49.986;8.026;2023-04-08T18:54:45;6.22;;;4.28;;
46633;SDS011;32362;49.986;8.026;2023-04-08T19:21:26;6.47;;;4.20;;
46633;SDS011;32362;49.986;8.026;2023-04-08T19:48:09;7.68;;;5.25;;
46633;SDS011;32362;49.986;8.026;2023-04-08T20:14:50;4.68;;;3.30;;
46633;SDS011;32362;49.986;8.026;2023-04-08T20:41:31;5.05;;;3.30;;
46633;SDS011;32362;49.986;8.026;2023-04-08T21:08:12;4.70;;;3.03;;
46633;SDS011;32362;49.986;8.026;2023-04-08T21:34:52;5.13;;;3.38;;
46633;SDS011;32362;49.986;8.026;2023-04-08T22:01:41;7.03;;;4.25;;
46633;SDS011;32362;49.986;8.026;2023-04-08T22:28:21;6.30;;;4.18;;
46633;SDS011;32362;49.986;8.026;2023-04-08T22:55:02;6.82;;;4.40;;
46633;SDS011;32362;49.986;8.026;2023-04-08T23:21:44;6.57;;;4.20;;
46633;SDS011;32362;49.986;8.026;2023-04-08T23:48:25;8.85;;;4.97;;
